Time;durP1;ratioP1;P1;durP2;ratioP2;P2;SDS_P1;SDS_P2;PMS_P1;PMS_P2;Temp;Humidity;BMP_temperature;BMP_pressure;BME280_temperature;BME280_humidity;BME280_pressure;Samples;Min_cycle;Max_cycle;Signal;HPM_P1;HPM_P2
2023/01/20 00:01:37;;;;;;;30.70;14.53;;;;;;;-0.06;92.13;100973.97;5072623;28;20096;-75
2023/01/20 00:04:02;;;;;;;27.07;13.70;;;;;;;-0.08;92.41;100973.09;5071954;28;20040;-76
2023/01/20 00:06:28;;;;;;;29.43;13.93;;;;;;;-0.08;92.96;100973.94;5073874;28;20032;-76
2023/01/20 00:08:55;;;;;;;25.83;12.80;;;;;;;-0.07;92.88;100978.22;5072274;28;20134;-76
2023/01/20 00:11:20;;;;;;;28.13;13.87;;;;;;;-0.08;93.01;100973.09;5076408;28;20036;-75
2023/01/20 00:13:46;;;;;;;26.50;13.10;;;;;;;-0.10;92.62;100974.75;5072535;28;20317;-75
2023/01/20 00:16:12;;;;;;;26.63;12.07;;;;;;;-0.12;92.70;100984.06;5070411;28;20186;-75
2023/01/20 00:18:38;;;;;;;26.77;12.57;;;;;;;-0.15;92.73;100992.56;5072245;28;20043;-75
2023/01/20 00:21:05;;;;;;;24.13;12.37;;;;;;;-0.12;92.80;100991.75;5072305;28;20024;-76
2023/01/20 00:23:31;;;;;;;25.93;12.40;;;;;;;-0.10;93.02;100998.63;5069394;28;20036;-77
2023/01/20 00:25:56;;;;;;;25.10;12.07;;;;;;;-0.04;93.16;101011.53;5071612;28;20040;-75
2023/01/20 00:28:22;;;;;;;24.33;11.70;;;;;;;0.01;92.67;101016.75;5073775;28;20070;-76
2023/01/20 00:30:47;;;;;;;23.87;11.20;;;;;;;0.02;93.29;101015.91;5072305;28;20039;-76
2023/01/20 00:33:12;;;;;;;23.47;11.03;;;;;;;0.04;92.99;101023.63;5070681;28;20067;-75
2023/01/20 00:35:38;;;;;;;22.80;11.60;;;;;;;0.05;92.95;101021.09;5072336;28;20360;-76
2023/01/20 00:38:03;;;;;;;20.63;10.43;;;;;;;0.04;92.75;101014.25;5072535;28;20040;-77
2023/01/20 00:40:29;;;;;;;21.50;10.23;;;;;;;0.05;92.83;101020.25;5073765;28;20532;-76
2023/01/20 00:42:54;;;;;;;20.90;10.23;;;;;;;0.04;92.76;101029.59;5071625;28;20047;-77
2023/01/20 00:45:19;;;;;;;22.77;10.80;;;;;;;0.02;92.89;101028.69;5074848;28;20404;-76
2023/01/20 00:47:45;;;;;;;22.73;11.07;;;;;;;0.00;92.62;101025.28;5066301;28;20020;-75
2023/01/20 00:50:10;;;;;;;21.83;10.63;;;;;;;-0.01;92.62;101032.06;5058501;28;20021;-74
2023/01/20 00:52:35;;;;;;;22.63;10.80;;;;;;;-0.01;92.38;101026.94;5066361;28;20032;-75
2023/01/20 00:55:00;;;;;;;22.13;10.80;;;;;;;0.00;92.87;101022.72;5044658;28;20445;-75
2023/01/20 00:57:26;;;;;;;23.43;10.90;;;;;;;0.01;93.22;101026.13;5052840;28;20031;-75
2023/01/20 00:59:51;;;;;;;22.70;11.13;;;;;;;0.02;92.96;101030.41;5069422;28;20036;-75
2023/01/20 01:02:16;;;;;;;23.17;11.60;;;;;;;0.01;92.71;101029.53;5056494;28;20024;-75
2023/01/20 01:04:42;;;;;;;23.27;11.43;;;;;;;-0.01;92.68;101026.94;5068731;28;20025;-75
2023/01/20 01:07:08;;;;;;;25.20;11.50;;;;;;;0.00;93.07;101027.81;5054219;28;20028;-75
2023/01/20 01:09:33;;;;;;;25.03;12.63;;;;;;;-0.01;92.64;101028.66;5035407;28;20492;-75
2023/01/20 01:11:58;;;;;;;23.17;11.07;;;;;;;-0.02;92.73;101032.03;5065272;28;20032;-75
2023/01/20 01:14:24;;;;;;;23.97;11.73;;;;;;;-0.02;92.96;101029.50;5070277;28;20094;-75
2023/01/20 01:16:49;;;;;;;23.13;11.17;;;;;;;0.01;92.98;101037.19;5067053;28;20037;-75
2023/01/20 01:19:17;;;;;;;23.83;11.80;;;;;;;-0.02;93.12;101029.50;5061211;28;20021;-75
2023/01/20 01:21:42;;;;;;;23.93;11.10;;;;;;;-0.04;92.76;101031.16;5045969;28;20069;-75
2023/01/20 01:24:08;;;;;;;22.97;10.93;;;;;;;-0.05;93.04;101034.53;5060291;28;20033;-75
2023/01/20 01:26:33;;;;;;;23.87;11.60;;;;;;;-0.03;93.25;101043.09;5067547;28;20057;-75
2023/01/20 01:28:58;;;;;;;23.73;10.73;;;;;;;-0.02;93.24;101047.41;5074566;28;20028;-75
2023/01/20 01:31:23;;;;;;;23.03;11.00;;;;;;;-0.02;92.61;101049.94;5070449;28;20028;-75
2023/01/20 01:33:49;;;;;;;22.47;10.40;;;;;;;-0.06;93.03;101049.00;5073109;28;20485;-75
2023/01/20 01:36:16;;;;;;;23.77;10.83;;;;;;;-0.04;92.95;101060.13;5073485;28;20028;-75
2023/01/20 01:38:42;;;;;;;23.43;10.57;;;;;;;-0.03;93.55;101059.31;5073294;28;20028;-75
2023/01/20 01:41:11;;;;;;;23.67;10.67;;;;;;;-0.01;93.32;101061.91;5072806;28;20352;-75
2023/01/20 01:43:37;;;;;;;25.10;10.97;;;;;;;0.03;92.50;101065.38;5070995;28;20181;-75
2023/01/20 01:46:03;;;;;;;25.40;11.93;;;;;;;0.01;92.60;101065.34;5055161;28;20396;-74
2023/01/20 01:48:42;;;;;;;30.30;12.53;;;;;;;-0.01;92.81;101064.47;5061728;28;20083;-75
2023/01/20 01:51:13;;;;;;;29.93;13.27;;;;;;;-0.02;93.06;101067.84;5072884;28;20024;-75
2023/01/20 01:53:52;;;;;;;30.13;13.27;;;;;;;-0.06;92.79;101077.13;5067660;28;20078;-75
2023/01/20 01:56:18;;;;;;;25.97;11.60;;;;;;;-0.09;93.38;101074.53;5066497;28;20020;-75
2023/01/20 01:58:47;;;;;;;30.17;12.80;;;;;;;-0.06;92.83;101078.84;5060570;28;20024;-75
2023/01/20 02:01:12;;;;;;;28.50;12.07;;;;;;;-0.06;92.61;101081.41;5064355;28;20374;-75
2023/01/20 02:03:45;;;;;;;30.67;13.17;;;;;;;-0.04;92.90;101077.19;5067929;28;20479;-75
2023/01/20 02:06:12;;;;;;;31.27;13.33;;;;;;;-0.09;93.04;101074.53;5062162;28;20120;-75
2023/01/20 02:08:37;;;;;;;29.90;13.00;;;;;;;-0.11;92.90;101070.19;5067195;28;20076;-75
2023/01/20 02:11:02;;;;;;;32.80;13.30;;;;;;;-0.11;92.72;101065.06;5062932;28;20095;-75
2023/01/20 02:13:28;;;;;;;29.07;12.90;;;;;;;-0.09;92.95;101073.66;5064660;28;20055;-75
2023/01/20 02:16:12;;;;;;;29.50;12.33;;;;;;;-0.10;92.95;101067.69;5057816;28;20060;-75
2023/01/20 02:18:44;;;;;;;29.30;11.83;;;;;;;-0.07;93.19;101064.31;5069868;28;20419;-75
2023/01/20 02:21:19;;;;;;;31.27;12.23;;;;;;;-0.06;92.95;101063.50;5073361;28;20028;-75
2023/01/20 02:23:44;;;;;;;31.17;12.97;;;;;;;-0.04;93.18;101072.91;5051014;28;20033;-75
2023/01/20 02:26:12;;;;;;;30.97;13.03;;;;;;;-0.06;92.75;101068.59;5060594;28;20032;-75
2023/01/20 02:29:05;;;;;;;29.43;12.47;;;;;;;-0.08;93.17;101066.00;5072201;28;20107;-75
2023/01/20 02:32:01;;;;;;;29.20;12.80;;;;;;;-0.05;93.14;101065.22;5059583;28;20057;-74
2023/01/20 02:34:31;;;;;;;27.87;11.60;;;;;;;-0.06;92.83;101071.16;5057260;28;20025;-75
2023/01/20 02:37:04;;;;;;;32.13;12.50;;;;;;;-0.07;93.33;101066.88;5070364;28;20095;-75
2023/01/20 02:39:39;;;;;;;33.67;12.83;;;;;;;-0.10;92.91;101067.69;5036238;28;20407;-75
2023/01/20 02:42:09;;;;;;;32.53;12.40;;;;;;;-0.10;93.24;101071.94;5073007;28;20040;-75
2023/01/20 02:44:50;;;;;;;33.13;13.00;;;;;;;-0.10;93.49;101072.81;5070041;28;20028;-75
2023/01/20 02:47:36;;;;;;;31.75;11.93;;;;;;;-0.10;93.11;101074.47;5065777;28;20040;-75
2023/01/20 02:50:14;;;;;;;32.07;12.50;;;;;;;-0.10;93.10;101074.47;5061375;28;20084;-75
2023/01/20 02:52:47;;;;;;;30.57;12.87;;;;;;;-0.09;93.28;101079.66;5056238;28;20039;-75
2023/01/20 02:55:20;;;;;;;31.77;13.40;;;;;;;-0.09;93.40;101084.75;5057923;28;20031;-75
2023/01/20 02:57:50;;;;;;;33.17;13.20;;;;;;;-0.07;92.69;101085.63;5064538;28;20122;-75
2023/01/20 03:00:38;;;;;;;31.80;12.90;;;;;;;-0.10;92.78;101079.59;5067278;28;20021;-75
2023/01/20 03:03:09;;;;;;;30.90;12.80;;;;;;;-0.11;93.02;101076.19;5053978;28;20029;-75
2023/01/20 03:05:41;;;;;;;30.60;12.40;;;;;;;-0.10;92.59;101090.72;5064014;28;20104;-75
2023/01/20 03:08:09;;;;;;;31.00;12.80;;;;;;;-0.10;93.31;101089.81;5058581;28;20063;-75
2023/01/20 03:10:37;;;;;;;28.83;12.50;;;;;;;-0.13;93.20;101095.75;5064267;28;20536;-75
2023/01/20 03:13:15;;;;;;;31.93;12.03;;;;;;;-0.11;93.29;101098.31;5060692;28;20036;-75
2023/01/20 03:16:21;;;;;;;29.70;12.60;;;;;;;-0.13;92.73;101098.31;5056887;28;20135;-75
2023/01/20 03:18:47;;;;;;;29.03;11.60;;;;;;;-0.16;92.62;101098.22;5060344;28;20024;-75
2023/01/20 03:21:13;;;;;;;28.50;12.40;;;;;;;-0.16;93.25;101093.13;5065306;28;20472;-75
2023/01/20 03:23:43;;;;;;;29.57;11.20;;;;;;;-0.14;93.03;101095.69;5064974;28;20059;-75
2023/01/20 03:26:11;;;;;;;25.67;10.20;;;;;;;-0.12;93.53;101104.25;5046927;28;20505;-75
2023/01/20 03:28:37;;;;;;;25.63;10.73;;;;;;;-0.12;92.97;101107.69;5064886;28;20098;-75
2023/01/20 03:31:12;;;;;;;28.17;11.53;;;;;;;-0.12;92.97;101104.25;5060383;28;20032;-75
2023/01/20 03:33:38;;;;;;;26.90;10.60;;;;;;;-0.16;92.79;101098.22;5058068;28;20086;-75
2023/01/20 03:36:04;;;;;;;28.87;11.33;;;;;;;-0.18;92.76;101103.31;5061078;28;20028;-75
2023/01/20 03:38:29;;;;;;;27.73;11.23;;;;;;;-0.18;93.08;101111.00;5064984;28;20517;-75
2023/01/20 03:41:04;;;;;;;25.60;10.00;;;;;;;-0.16;93.23;101119.53;5063468;28;20075;-75
2023/01/20 03:43:39;;;;;;;26.17;10.90;;;;;;;-0.18;92.74;101116.09;5043276;28;20036;-74
2023/01/20 03:46:12;;;;;;;27.37;11.07;;;;;;;-0.19;93.28;101108.38;5066862;28;20142;-75
2023/01/20 03:49:09;;;;;;;26.37;10.70;;;;;;;-0.18;93.16;101116.09;5065868;28;20040;-75
2023/01/20 03:51:50;;;;;;;25.23;10.80;;;;;;;-0.19;92.72;101111.81;5025968;28;20245;-75
2023/01/20 03:54:23;;;;;;;23.65;10.30;;;;;;;-0.19;92.95;101118.59;5062935;28;20511;-75
2023/01/20 03:56:57;;;;;;;26.60;10.47;;;;;;;-0.21;92.56;101121.16;5063816;28;20464;-75
2023/01/20 03:59:22;;;;;;;27.27;10.87;;;;;;;-0.21;93.28;101116.03;5063970;28;20033;-75
2023/01/20 04:01:48;;;;;;;27.83;11.17;;;;;;;-0.21;93.33;101112.59;5038587;28;20025;-75
2023/01/20 04:04:17;;;;;;;25.63;10.37;;;;;;;-0.19;93.34;101118.59;5056132;28;20032;-75
2023/01/20 04:06:45;;;;;;;24.97;10.27;;;;;;;-0.21;92.64;101118.59;5063771;28;20675;-75
2023/01/20 04:09:23;;;;;;;24.70;10.50;;;;;;;-0.21;92.84;101121.16;5052094;28;20051;-75
2023/01/20 04:11:48;;;;;;;25.00;10.83;;;;;;;-0.21;92.69;101125.38;5068496;28;20020;-75
2023/01/20 04:14:13;;;;;;;22.40;10.37;;;;;;;-0.20;92.85;101119.44;5071041;28;20035;-75
2023/01/20 04:16:39;;;;;;;26.47;10.30;;;;;;;-0.21;92.73;101121.16;5069669;28;20055;-75
2023/01/20 04:19:04;;;;;;;24.77;9.60;;;;;;;-0.20;93.21;101129.66;5059480;28;20391;-75
2023/01/20 04:21:43;;;;;;;26.63;9.47;;;;;;;-0.18;92.94;101121.22;5056550;28;21585;-75
2023/01/20 04:24:30;;;;;;;25.20;10.13;;;;;;;-0.19;93.39;101111.81;5066114;28;20168;-75
2023/01/20 04:26:55;;;;;;;25.03;9.70;;;;;;;-0.20;92.61;101112.66;5056265;28;20029;-74
2023/01/20 04:29:20;;;;;;;23.53;10.60;;;;;;;-0.19;92.90;101113.50;5063577;28;20516;-75
2023/01/20 04:31:45;;;;;;;23.87;8.93;;;;;;;-0.18;92.73;101113.56;5060072;28;20025;-75
2023/01/20 04:34:14;;;;;;;24.23;9.43;;;;;;;-0.18;92.76;101121.22;5059356;28;20437;-75
2023/01/20 04:36:39;;;;;;;25.60;10.20;;;;;;;-0.19;92.83;101121.16;5059472;28;20058;-75
2023/01/20 04:39:05;;;;;;;25.40;9.80;;;;;;;-0.20;92.49;101124.56;5059041;28;20032;-75
2023/01/20 04:41:30;;;;;;;24.83;10.43;;;;;;;-0.22;93.37;101119.41;5061865;28;20110;-75
2023/01/20 04:43:55;;;;;;;23.93;10.37;;;;;;;-0.21;93.10;101120.25;5058130;28;20029;-75
2023/01/20 04:46:20;;;;;;;25.50;10.77;;;;;;;-0.21;93.07;101125.38;5058509;28;20494;-75
2023/01/20 04:48:46;;;;;;;25.07;10.57;;;;;;;-0.23;93.12;101127.91;5059583;28;20091;-75
2023/01/20 04:51:12;;;;;;;27.27;10.67;;;;;;;-0.23;92.84;101133.03;5064302;28;20020;-75
2023/01/20 04:53:37;;;;;;;27.93;10.73;;;;;;;-0.22;93.29;101129.66;5055768;28;20043;-75
2023/01/20 04:56:03;;;;;;;29.47;11.93;;;;;;;-0.23;92.63;101130.47;5061765;28;20040;-75
2023/01/20 04:58:28;;;;;;;26.40;11.83;;;;;;;-0.25;92.70;101127.00;5054774;28;20033;-75
2023/01/20 05:00:53;;;;;;;26.90;11.63;;;;;;;-0.25;93.18;101132.13;5058837;28;20542;-75
2023/01/20 05:03:19;;;;;;;27.07;11.87;;;;;;;-0.25;93.17;101138.91;5069354;28;20020;-75
2023/01/20 05:05:51;;;;;;;29.00;11.57;;;;;;;-0.24;92.80;101140.63;5052799;28;20396;-75
2023/01/20 05:08:17;;;;;;;32.93;11.90;;;;;;;-0.25;93.09;101142.34;5058247;28;20522;-75
2023/01/20 05:10:42;;;;;;;28.53;11.73;;;;;;;-0.26;92.65;101142.31;5060492;28;20044;-75
2023/01/20 05:13:07;;;;;;;28.90;11.77;;;;;;;-0.26;93.05;101147.44;5061294;28;20024;-75
2023/01/20 05:15:32;;;;;;;31.87;12.30;;;;;;;-0.28;92.57;101144.81;5040224;28;20124;-75
2023/01/20 05:17:58;;;;;;;31.57;12.33;;;;;;;-0.31;92.31;101145.63;5039486;28;20369;-75
2023/01/20 05:20:23;;;;;;;30.20;12.07;;;;;;;-0.30;92.75;101146.47;5060181;28;20033;-75
2023/01/20 05:22:48;;;;;;;28.17;12.03;;;;;;;-0.30;92.94;101146.47;5061210;28;20028;-75
2023/01/20 05:25:14;;;;;;;29.97;12.93;;;;;;;-0.27;92.63;101153.38;5063993;28;20020;-75
2023/01/20 05:27:39;;;;;;;29.03;12.03;;;;;;;-0.28;92.83;101157.59;5055863;28;20423;-75
2023/01/20 05:30:05;;;;;;;28.87;12.17;;;;;;;-0.29;92.83;101153.31;5056686;28;20028;-74
2023/01/20 05:32:31;;;;;;;31.33;12.27;;;;;;;-0.30;92.99;101154.16;5061957;28;20460;-75
2023/01/20 05:34:56;;;;;;;32.73;13.20;;;;;;;-0.29;93.06;101155.03;5061638;28;20032;-75
2023/01/20 05:37:21;;;;;;;31.27;12.77;;;;;;;-0.30;93.27;101156.72;5055126;28;20086;-75
2023/01/20 05:39:46;;;;;;;32.33;12.67;;;;;;;-0.31;93.06;101160.97;5058671;28;20471;-75
2023/01/20 05:42:12;;;;;;;27.00;11.07;;;;;;;-0.31;92.56;101157.53;5063001;28;20093;-75
2023/01/20 05:44:37;;;;;;;30.03;12.07;;;;;;;-0.31;92.95;101158.41;5062800;28;20029;-74
2023/01/20 05:47:02;;;;;;;24.50;10.97;;;;;;;-0.32;92.75;101149.00;5057577;28;20102;-75
2023/01/20 05:49:28;;;;;;;28.07;11.60;;;;;;;-0.32;92.96;101158.34;5060523;28;20025;-75
2023/01/20 05:51:53;;;;;;;25.53;11.00;;;;;;;-0.33;92.96;101167.72;5064042;28;20036;-74
2023/01/20 05:54:18;;;;;;;22.60;10.43;;;;;;;-0.36;92.84;101162.53;5057778;28;20155;-75
2023/01/20 05:56:46;;;;;;;25.37;10.60;;;;;;;-0.37;93.00;101168.47;5057235;28;20075;-75
2023/01/20 05:59:11;;;;;;;35.07;11.27;;;;;;;-0.37;92.61;101159.97;5061270;28;20086;-75
2023/01/20 06:01:37;;;;;;;27.30;10.60;;;;;;;-0.39;92.98;101159.91;5059097;28;20037;-75
2023/01/20 06:04:02;;;;;;;26.63;10.90;;;;;;;-0.40;92.62;101168.41;5056573;28;20036;-75
2023/01/20 06:06:27;;;;;;;28.17;11.03;;;;;;;-0.39;93.37;101171.84;5059391;28;20383;-74
2023/01/20 06:08:52;;;;;;;26.87;10.77;;;;;;;-0.38;92.75;101168.44;5055968;28;20083;-74
2023/01/20 06:11:18;;;;;;;28.67;10.97;;;;;;;-0.40;93.10;101167.53;5060281;28;20035;-75
2023/01/20 06:13:47;;;;;;;26.90;11.20;;;;;;;-0.43;93.00;101165.78;5062257;28;20078;-75
2023/01/20 06:16:12;;;;;;;28.73;11.40;;;;;;;-0.43;92.59;101168.34;5057223;28;20499;-75
2023/01/20 06:18:37;;;;;;;26.83;11.50;;;;;;;-0.42;92.81;101176.88;5059262;28;20025;-74
2023/01/20 06:21:03;;;;;;;26.70;10.50;;;;;;;-0.40;92.80;101170.94;5059466;28;20403;-75
2023/01/20 06:23:28;;;;;;;27.37;11.53;;;;;;;-0.40;93.03;101177.78;5062399;28;20025;-76
2023/01/20 06:26:02;;;;;;;30.37;11.70;;;;;;;-0.41;93.38;101174.34;5049870;28;20028;-75
2023/01/20 06:28:28;;;;;;;29.70;11.60;;;;;;;-0.42;93.21;101180.28;5067953;28;20028;-75
2023/01/20 06:31:03;;;;;;;30.03;12.07;;;;;;;-0.40;93.40;101183.72;5062214;28;20031;-75
2023/01/20 06:33:29;;;;;;;28.60;10.63;;;;;;;-0.41;93.02;101182.00;5061511;28;20029;-75
2023/01/20 06:35:56;;;;;;;28.27;11.40;;;;;;;-0.41;92.65;101188.81;5064662;28;20630;-75
2023/01/20 06:38:27;;;;;;;30.20;11.60;;;;;;;-0.41;92.62;101194.78;5059426;28;20036;-75
2023/01/20 06:41:10;;;;;;;30.42;11.63;;;;;;;-0.40;92.53;101185.44;5067112;28;20037;-75
2023/01/20 06:43:38;;;;;;;25.37;10.60;;;;;;;-0.39;93.19;101192.28;5067743;28;20028;-75
2023/01/20 06:46:06;;;;;;;28.77;11.17;;;;;;;-0.40;92.64;101185.44;5061668;28;20021;-75
2023/01/20 06:48:32;;;;;;;29.40;11.53;;;;;;;-0.40;93.20;101195.66;5060365;28;20028;-75
2023/01/20 06:51:06;;;;;;;26.90;10.53;;;;;;;-0.40;92.68;101191.41;5068390;28;20025;-75
2023/01/20 06:53:31;;;;;;;26.03;10.77;;;;;;;-0.38;92.64;101187.19;5059531;28;20260;-75
2023/01/20 06:55:58;;;;;;;27.47;11.33;;;;;;;-0.39;92.63;101189.72;5058034;28;20462;-75
2023/01/20 06:58:25;;;;;;;28.37;11.93;;;;;;;-0.39;92.74;101187.16;5064496;28;20029;-75
2023/01/20 07:00:51;;;;;;;29.40;11.00;;;;;;;-0.39;92.97;101192.28;5066134;28;20051;-74
2023/01/20 07:03:17;;;;;;;26.47;10.53;;;;;;;-0.39;93.07;101193.13;5064451;28;20358;-74
2023/01/20 07:05:42;;;;;;;27.83;10.60;;;;;;;-0.38;92.86;101196.56;5058310;28;20128;-75
2023/01/20 07:08:07;;;;;;;28.03;11.63;;;;;;;-0.38;92.74;101187.19;5068530;28;20047;-74
2023/01/20 07:10:33;;;;;;;29.60;11.73;;;;;;;-0.38;93.09;101194.00;5057755;28;20024;-74
2023/01/20 07:12:58;;;;;;;32.10;12.80;;;;;;;-0.38;93.30;101191.47;5055451;28;20100;-74
2023/01/20 07:15:23;;;;;;;40.67;12.77;;;;;;;-0.38;93.12;101196.56;5053830;28;20395;-74
2023/01/20 07:17:48;;;;;;;31.90;11.77;;;;;;;-0.37;92.92;101195.75;5069027;28;20095;-75
2023/01/20 07:20:14;;;;;;;30.50;12.30;;;;;;;-0.38;93.17;101201.69;5071213;28;20048;-74
2023/01/20 07:22:39;;;;;;;25.37;10.53;;;;;;;-0.37;93.39;101213.66;5069185;28;20025;-75
2023/01/20 07:25:05;;;;;;;29.23;12.27;;;;;;;-0.38;92.80;101220.44;5064083;28;20107;-74
2023/01/20 07:27:30;;;;;;;25.90;10.83;;;;;;;-0.37;93.38;101211.09;5059361;28;20044;-75
2023/01/20 07:29:56;;;;;;;27.03;12.07;;;;;;;-0.37;93.08;101217.06;5053041;28;20048;-75
2023/01/20 07:32:22;;;;;;;30.30;11.70;;;;;;;-0.36;93.79;101225.59;5056569;28;20468;-75
2023/01/20 07:34:47;;;;;;;29.03;11.83;;;;;;;-0.33;93.17;101223.09;5059568;28;20017;-75
2023/01/20 07:37:12;;;;;;;31.17;12.47;;;;;;;-0.33;93.60;101221.41;5051478;28;20050;-75
2023/01/20 07:39:38;;;;;;;29.27;11.30;;;;;;;-0.31;93.57;101218.88;5065489;28;20460;-74
2023/01/20 07:42:03;;;;;;;27.77;12.27;;;;;;;-0.32;92.78;101209.50;5064588;28;20034;-75
2023/01/20 07:44:28;;;;;;;27.60;11.27;;;;;;;-0.32;93.32;101204.38;5065901;28;20024;-75
2023/01/20 07:46:53;;;;;;;28.77;11.97;;;;;;;-0.30;93.28;101197.59;5062725;28;20020;-74
2023/01/20 07:49:19;;;;;;;24.73;10.63;;;;;;;-0.30;93.32;101207.84;5062095;28;20437;-75
2023/01/20 07:51:44;;;;;;;28.80;12.20;;;;;;;-0.31;93.09;101216.34;5058015;28;20025;-76
2023/01/20 07:54:10;;;;;;;29.00;11.10;;;;;;;-0.31;93.64;101229.13;5062550;28;20430;-75
2023/01/20 07:56:35;;;;;;;29.67;12.03;;;;;;;-0.32;93.42;101235.06;5061729;28;20103;-75
2023/01/20 07:59:01;;;;;;;28.00;10.87;;;;;;;-0.30;93.29;101235.97;5064709;28;20106;-74
2023/01/20 08:01:29;;;;;;;27.90;12.10;;;;;;;-0.27;93.22;101235.19;5065817;28;20066;-75
2023/01/20 08:03:55;;;;;;;28.90;12.00;;;;;;;-0.27;93.24;101232.63;5044551;28;20024;-75
2023/01/20 08:06:22;;;;;;;29.87;12.37;;;;;;;-0.27;93.88;101228.38;5055225;28;20033;-75
2023/01/20 08:08:49;;;;;;;26.83;11.20;;;;;;;-0.25;93.51;101244.63;5060076;28;20043;-75
2023/01/20 08:11:17;;;;;;;29.57;12.67;;;;;;;-0.25;93.58;101247.19;5057111;28;20025;-75
2023/01/20 08:13:43;;;;;;;28.63;11.93;;;;;;;-0.25;93.43;101242.06;5054367;28;20052;-75
2023/01/20 08:16:10;;;;;;;23.40;10.30;;;;;;;-0.26;93.33;101242.88;5061302;28;20087;-75
2023/01/20 08:18:36;;;;;;;29.57;11.50;;;;;;;-0.23;93.70;101249.75;5068245;28;20028;-75
2023/01/20 08:21:05;;;;;;;30.97;12.03;;;;;;;-0.23;93.12;101244.66;5067559;28;20380;-74
2023/01/20 08:23:31;;;;;;;26.03;10.37;;;;;;;-0.22;93.26;101248.94;5048405;28;20119;-75
2023/01/20 08:25:58;;;;;;;26.60;10.93;;;;;;;-0.22;93.80;101247.25;5062447;28;20464;-75
2023/01/20 08:28:24;;;;;;;26.70;11.23;;;;;;;-0.20;93.18;101237.94;5062364;28;20028;-75
2023/01/20 08:30:49;;;;;;;24.00;11.30;;;;;;;-0.19;93.43;101233.69;5058534;28;20041;-75
2023/01/20 08:33:15;;;;;;;25.10;10.77;;;;;;;-0.18;93.42;101236.28;5054913;28;20676;-75
2023/01/20 08:35:40;;;;;;;28.13;10.97;;;;;;;-0.21;93.33;101228.53;5063795;28;20024;-75
2023/01/20 08:38:06;;;;;;;27.33;11.70;;;;;;;-0.21;93.82;101243.88;5059280;28;20020;-75
2023/01/20 08:40:31;;;;;;;27.27;11.10;;;;;;;-0.22;93.64;101236.16;5058495;28;20398;-75
2023/01/20 08:42:57;;;;;;;26.77;10.60;;;;;;;-0.22;93.64;101239.59;5054730;28;20036;-75
2023/01/20 08:45:22;;;;;;;26.30;11.33;;;;;;;-0.22;94.00;101236.16;5063636;28;20036;-75
2023/01/20 08:47:48;;;;;;;28.03;11.20;;;;;;;-0.21;93.89;101238.78;5058749;28;20026;-75
2023/01/20 08:50:14;;;;;;;27.87;11.20;;;;;;;-0.20;93.99;101243.06;5062714;28;20035;-75
2023/01/20 08:52:40;;;;;;;26.17;10.80;;;;;;;-0.19;93.62;101249.91;5063846;28;20032;-75
2023/01/20 08:55:07;;;;;;;27.10;11.40;;;;;;;-0.18;94.18;101254.19;5059446;28;20032;-75
2023/01/20 08:57:32;;;;;;;26.90;11.23;;;;;;;-0.17;93.67;101255.88;5063081;28;20032;-75
2023/01/20 08:59:57;;;;;;;27.27;11.33;;;;;;;-0.17;94.00;101263.56;5061201;28;20384;-75
2023/01/20 09:02:23;;;;;;;26.00;10.70;;;;;;;-0.16;93.96;101251.66;5058716;28;20087;-75
2023/01/20 09:04:49;;;;;;;25.67;11.10;;;;;;;-0.17;94.19;101261.00;5063861;28;20040;-75
2023/01/20 09:07:16;;;;;;;26.93;11.27;;;;;;;-0.16;94.29;101267.00;5058733;28;20040;-75
2023/01/20 09:09:41;;;;;;;25.07;11.07;;;;;;;-0.16;94.03;101272.97;5059619;28;20064;-75
2023/01/20 09:12:07;;;;;;;25.10;10.27;;;;;;;-0.15;94.02;101271.28;5067178;28;20116;-75
2023/01/20 09:14:32;;;;;;;24.20;10.43;;;;;;;-0.16;94.00;101267.84;5053297;28;20033;-75
2023/01/20 09:16:59;;;;;;;24.37;10.43;;;;;;;-0.17;93.77;101266.13;5058446;28;20103;-75
2023/01/20 09:19:24;;;;;;;24.03;10.03;;;;;;;-0.16;93.83;101272.13;5061052;28;20040;-76
2023/01/20 09:21:50;;;;;;;27.60;9.93;;;;;;;-0.15;93.77;101271.28;5058005;28;20028;-75
2023/01/20 09:24:15;;;;;;;24.77;10.63;;;;;;;-0.14;93.56;101269.59;5061124;28;20037;-75
2023/01/20 09:26:40;;;;;;;24.53;10.00;;;;;;;-0.18;93.91;101263.53;5058015;28;20024;-75
2023/01/20 09:29:11;;;;;;;22.93;10.87;;;;;;;-0.18;94.06;101266.97;5064251;28;20034;-75
2023/01/20 09:31:45;;;;;;;22.53;10.60;;;;;;;-0.18;93.93;101269.53;5065264;28;20037;-76
2023/01/20 09:34:17;;;;;;;22.33;10.20;;;;;;;-0.19;93.98;101262.69;5072662;28;20043;-76
2023/01/20 09:36:43;;;;;;;25.20;10.70;;;;;;;-0.21;93.83;101263.44;5067807;28;20061;-77
2023/01/20 09:44:55;;;;;;;24.57;11.07;;;;;;;-0.24;93.69;101264.25;5032953;28;20035;-76
2023/01/20 09:47:30;;;;;;;24.07;10.23;;;;;;;-0.22;94.24;101259.16;5074943;28;20057;-76
2023/01/20 09:53:16;;;;;;;22.40;11.00;;;;;;;-0.25;93.97;101248.84;5074812;28;20101;-75
2023/01/20 09:55:52;;;;;;;23.27;10.13;;;;;;;-0.25;94.17;101256.53;5074269;28;20037;-77
2023/01/20 09:58:58;;;;;;;22.67;9.90;;;;;;;-0.26;94.67;101245.44;5071295;28;20054;-77
2023/01/20 10:01:23;;;;;;;22.07;9.70;;;;;;;-0.24;94.45;101250.59;5074600;28;20040;-77
2023/01/20 10:04:03;;;;;;;23.77;10.13;;;;;;;-0.24;93.92;101251.47;5073681;28;20028;-76
2023/01/20 10:06:36;;;;;;;19.80;9.47;;;;;;;-0.24;94.27;101253.16;5075444;28;20033;-76
2023/01/20 10:09:08;;;;;;;22.07;9.87;;;;;;;-0.23;94.43;101258.31;5076262;28;20061;-75
2023/01/20 10:11:39;;;;;;;19.63;9.30;;;;;;;-0.23;94.54;101257.44;5075697;28;20032;-76
2023/01/20 10:14:38;;;;;;;18.57;9.13;;;;;;;-0.22;94.76;101272.84;5076294;28;20054;-76
2023/01/20 10:17:19;;;;;;;19.37;9.23;;;;;;;-0.19;94.55;101277.16;5075660;28;20493;-76
2023/01/20 10:19:52;;;;;;;17.92;8.52;;;;;;;-0.16;95.02;101280.63;5075450;28;20454;-77
2023/01/20 10:22:28;;;;;;;17.80;8.47;;;;;;;-0.13;95.33;101276.44;5072228;28;20024;-77
2023/01/20 10:25:06;;;;;;;17.53;8.80;;;;;;;-0.10;95.37;101277.41;5055530;28;20024;-77
2023/01/20 10:27:34;;;;;;;16.37;8.67;;;;;;;-0.08;95.40;101280.84;5075016;28;20024;-76
2023/01/20 10:30:20;;;;;;;17.87;8.37;;;;;;;-0.04;95.63;101274.97;5073136;28;20423;-76
2023/01/20 10:33:04;;;;;;;17.70;8.57;;;;;;;-0.02;95.34;101280.16;5074301;28;20020;-76
2023/01/20 10:35:35;;;;;;;15.07;7.57;;;;;;;-0.01;95.13;101279.31;5074016;28;20034;-76
2023/01/20 10:38:05;;;;;;;19.75;8.73;;;;;;;0.01;95.05;101289.56;5070545;28;20024;-77
2023/01/20 10:40:39;;;;;;;15.97;7.60;;;;;;;0.05;95.55;101288.84;5071870;28;20103;-77
2023/01/20 10:43:15;;;;;;;15.40;8.40;;;;;;;0.04;95.10;101284.53;5075106;28;20053;-77
2023/01/20 10:46:13;;;;;;;15.07;7.43;;;;;;;0.07;95.76;101285.47;5076617;28;20032;-77
2023/01/20 10:49:06;;;;;;;16.10;7.87;;;;;;;0.09;95.25;101288.94;5075033;28;20028;-75
2023/01/20 10:51:50;;;;;;;15.43;7.80;;;;;;;0.10;95.74;101290.69;5071042;28;20048;-75
2023/01/20 10:54:36;;;;;;;14.17;7.27;;;;;;;0.13;95.85;101284.75;5073851;28;20211;-76
2023/01/20 10:57:05;;;;;;;15.40;7.80;;;;;;;0.16;95.49;101289.94;5076486;28;20115;-77
2023/01/20 10:59:39;;;;;;;13.77;7.50;;;;;;;0.18;95.45;101282.31;5072736;28;20028;-76
2023/01/20 11:02:16;;;;;;;15.50;7.20;;;;;;;0.21;95.86;101282.38;5071681;28;20506;-76
2023/01/20 11:04:44;;;;;;;15.47;8.00;;;;;;;0.24;96.00;101287.56;5074500;28;20027;-75
2023/01/20 11:07:16;;;;;;;16.20;8.13;;;;;;;0.27;95.67;101287.66;5074857;28;20467;-75
2023/01/20 11:09:41;;;;;;;14.13;7.35;;;;;;;0.29;95.48;101288.56;5073335;28;20052;-75
2023/01/20 11:12:15;;;;;;;13.47;6.80;;;;;;;0.32;95.64;101290.31;5073514;28;20111;-75
2023/01/20 11:14:41;;;;;;;13.97;7.20;;;;;;;0.33;96.29;101295.50;5076723;28;20047;-75
2023/01/20 11:17:13;;;;;;;13.23;7.43;;;;;;;0.38;95.96;101301.56;5071785;28;20020;-75
2023/01/20 11:19:54;;;;;;;14.07;7.57;;;;;;;0.39;95.55;101295.63;5072275;28;20161;-75
2023/01/20 11:22:34;;;;;;;14.77;7.20;;;;;;;0.43;95.47;101309.34;5073150;28;20032;-75
2023/01/20 11:25:02;;;;;;;13.60;7.10;;;;;;;0.44;95.53;101303.41;5075113;28;20377;-76
2023/01/20 11:27:34;;;;;;;13.63;7.43;;;;;;;0.46;95.76;101309.41;5072962;28;20608;-75
2023/01/20 11:30:03;;;;;;;12.10;6.63;;;;;;;0.48;95.76;101302.66;5074003;28;20028;-76